createdAt,value
2022-08-09T00:00:12.026Z,100.00
2022-08-09T00:02:49.539Z,100.00
2022-08-09T00:06:19.506Z,99.65
2022-08-09T00:08:10.870Z,99.36
2022-08-09T00:10:39.092Z,98.62
2022-08-09T00:13:16.982Z,98.50
2022-08-09T00:15:58.636Z,98.77
2022-08-09T00:18:26.551Z,99.43
2022-08-09T00:20:55.275Z,99.48
2022-08-09T00:23:55.685Z,99.67
2022-08-09T00:26:08.740Z,99.67
2022-08-09T00:28:38.472Z,100.00
2022-08-09T00:31:46.737Z,100.00
2022-08-09T00:33:54.286Z,100.00
2022-08-09T00:36:22.242Z,100.00
2022-08-09T00:38:54.153Z,100.00
2022-08-09T00:44:10.259Z,100.00
2022-08-09T00:44:19.910Z,99.52
2022-08-09T00:47:04.874Z,99.62
2022-08-09T00:49:34.565Z,99.70
2022-08-09T00:52:05.325Z,99.68
2022-08-09T00:54:36.272Z,99.90
2022-08-09T00:57:10.393Z,100.00
2022-08-09T00:59:41.366Z,100.00
2022-08-09T01:02:19.110Z,100.00
2022-08-09T01:05:14.340Z,100.00
2022-08-09T01:08:01.658Z,100.00
2022-08-09T01:10:44.232Z,100.00
2022-08-09T01:13:41.983Z,100.00
2022-08-09T01:16:14.061Z,100.00
2022-08-09T01:18:47.589Z,100.00
2022-08-09T01:21:45.114Z,100.00
2022-08-09T01:24:50.507Z,100.00
2022-08-09T01:27:21.565Z,100.00
2022-08-09T01:29:56.557Z,100.00
2022-08-09T01:32:33.516Z,100.00
2022-08-09T01:35:18.223Z,100.00
2022-08-09T01:38:09.389Z,100.00
2022-08-09T01:40:42.835Z,100.00
2022-08-09T01:43:11.293Z,100.00
2022-08-09T01:45:44.712Z,100.00
2022-08-09T01:48:15.735Z,100.00
2022-08-09T01:50:48.096Z,100.00
2022-08-09T01:53:19.249Z,100.00
2022-08-09T01:55:47.663Z,100.00
2022-08-09T01:58:15.868Z,100.00
2022-08-09T02:00:46.269Z,100.00
2022-08-09T02:03:19.346Z,100.00
2022-08-09T02:05:53.684Z,100.00
2022-08-09T02:08:57.096Z,100.00
2022-08-09T02:11:25.016Z,100.00
2022-08-09T02:14:15.092Z,100.00
2022-08-09T02:17:15.270Z,100.00
2022-08-09T02:19:43.387Z,100.00
2022-08-09T02:22:39.652Z,100.00
2022-08-09T02:25:24.971Z,100.00
2022-08-09T02:28:04.060Z,100.00
2022-08-09T02:30:41.371Z,100.00
2022-08-09T02:33:14.147Z,100.00
2022-08-09T02:36:01.382Z,100.00
2022-08-09T02:38:32.264Z,100.00
2022-08-09T02:41:13.734Z,100.00
2022-08-09T02:43:54.805Z,100.00
2022-08-09T02:46:27.567Z,100.00
2022-08-09T02:48:56.632Z,100.00
2022-08-09T02:51:24.265Z,100.00
2022-08-09T02:54:00.871Z,100.00
2022-08-09T02:56:30.252Z,100.00
2022-08-09T02:58:58.188Z,100.00
2022-08-09T03:01:29.537Z,100.00
2022-08-09T03:04:19.344Z,100.00
2022-08-09T03:06:48.946Z,100.00
2022-08-09T03:09:16.347Z,100.00
2022-08-09T03:12:05.540Z,100.00
2022-08-09T03:14:31.815Z,100.00
2022-08-09T03:17:01.726Z,100.00
2022-08-09T03:19:57.775Z,100.00
2022-08-09T03:22:25.503Z,100.00
2022-08-09T03:25:26.990Z,100.00
2022-08-09T03:27:52.731Z,100.00
2022-08-09T03:30:29.682Z,100.00
2022-08-09T03:33:12.907Z,100.00
2022-08-09T03:35:44.228Z,100.00
2022-08-09T03:38:30.668Z,100.00
2022-08-09T03:40:57.876Z,100.00
2022-08-09T03:43:24.327Z,100.00
2022-08-09T03:46:05.019Z,100.00
2022-08-09T03:48:43.038Z,100.00
2022-08-09T03:51:55.183Z,100.00
2022-08-09T03:54:10.972Z,100.00
2022-08-09T03:56:41.332Z,100.00
2022-08-09T03:59:13.533Z,100.00
2022-08-09T04:01:44.585Z,100.00
2022-08-09T04:04:14.789Z,100.00
2022-08-09T04:06:44.053Z,100.00
2022-08-09T04:09:41.999Z,100.00
2022-08-09T04:12:11.842Z,100.00
2022-08-09T04:15:00.408Z,100.00
2022-08-09T04:17:27.003Z,100.00
2022-08-09T04:19:56.393Z,100.00
2022-08-09T04:22:22.915Z,100.00
2022-08-09T04:24:49.386Z,100.00
2022-08-09T04:27:17.131Z,100.00
2022-08-09T04:29:50.152Z,100.00
2022-08-09T04:32:17.110Z,100.00
2022-08-09T04:34:58.085Z,100.00
2022-08-09T04:37:45.334Z,100.00
2022-08-09T04:40:28.916Z,100.00
2022-08-09T04:43:00.176Z,100.00
2022-08-09T04:45:30.806Z,100.00
2022-08-09T04:48:03.149Z,100.00
2022-08-09T04:50:37.567Z,100.00
2022-08-09T04:53:13.160Z,100.00
2022-08-09T04:55:58.787Z,100.00
2022-08-09T04:58:27.907Z,100.00
2022-08-09T05:00:55.905Z,100.00
2022-08-09T05:03:39.919Z,100.00
2022-08-09T05:06:09.432Z,100.00
2022-08-09T05:08:36.130Z,100.00
2022-08-09T05:11:03.069Z,99.29
2022-08-09T05:13:33.145Z,98.40
2022-08-09T05:16:00.545Z,97.05
2022-08-09T05:18:50.637Z,95.74
2022-08-09T05:21:23.266Z,94.06
2022-08-09T05:24:01.007Z,91.65
2022-08-09T05:26:37.145Z,90.46
2022-08-09T05:29:21.837Z,90.52
2022-08-09T05:31:57.085Z,91.15
2022-08-09T05:34:31.456Z,91.33
2022-08-09T05:37:06.765Z,90.73
2022-08-09T05:39:43.249Z,91.65
2022-08-09T05:42:17.661Z,90.87
2022-08-09T05:44:51.067Z,90.80
2022-08-09T05:47:23.002Z,91.08
2022-08-09T05:50:34.860Z,90.91
2022-08-09T05:52:38.935Z,90.62
2022-08-09T05:55:08.763Z,90.47
2022-08-09T05:57:50.644Z,90.20
2022-08-09T06:00:23.000Z,89.85
2022-08-09T06:02:54.131Z,90.27
2022-08-09T06:05:31.306Z,89.96
2022-08-09T06:08:10.891Z,88.98
2022-08-09T06:10:37.935Z,88.60
2022-08-09T06:13:11.744Z,88.54
2022-08-09T06:15:46.832Z,88.90
2022-08-09T06:18:13.791Z,89.35
2022-08-09T06:20:42.404Z,88.89
2022-08-09T06:23:12.082Z,87.77
2022-08-09T06:25:42.140Z,87.67
2022-08-09T06:28:09.834Z,86.41
2022-08-09T06:30:36.209Z,85.44
2022-08-09T06:33:30.037Z,85.08
2022-08-09T06:35:57.543Z,85.08
2022-08-09T06:38:37.136Z,85.81
2022-08-09T06:41:13.489Z,85.63
2022-08-09T06:43:46.091Z,86.12
2022-08-09T06:46:39.041Z,84.17
2022-08-09T06:49:00.364Z,83.66
2022-08-09T06:51:27.039Z,84.50
2022-08-09T06:53:54.686Z,85.29
2022-08-09T06:56:21.046Z,86.17
2022-08-09T07:00:54.214Z,86.83
2022-08-09T07:01:54.318Z,86.97
2022-08-09T07:04:24.724Z,86.70
2022-08-09T07:07:00.548Z,86.32
2022-08-09T07:09:57.064Z,87.64
2022-08-09T07:12:18.059Z,85.59
2022-08-09T07:14:51.416Z,84.12
2022-08-09T07:17:21.508Z,82.29
2022-08-09T07:19:50.658Z,81.57
2022-08-09T07:22:18.605Z,82.82
2022-08-09T07:25:00.671Z,81.25
2022-08-09T07:27:34.022Z,80.52
2022-08-09T07:30:01.951Z,78.54
2022-08-09T07:32:32.852Z,78.64
2022-08-09T07:35:10.024Z,79.11
2022-08-09T07:37:43.604Z,79.77
2022-08-09T07:40:17.588Z,79.20
2022-08-09T07:42:52.452Z,77.62
2022-08-09T07:45:39.518Z,78.38
2022-08-09T07:48:08.089Z,76.46
2022-08-09T07:50:53.012Z,77.33
2022-08-09T07:54:04.290Z,77.33
2022-08-09T07:56:27.184Z,77.78
2022-08-09T07:58:54.688Z,75.86
2022-08-09T08:01:21.610Z,74.45
2022-08-09T08:03:56.892Z,73.25
2022-08-09T08:06:31.929Z,72.28
2022-08-09T08:09:04.607Z,72.19
2022-08-09T08:12:11.149Z,72.68
2022-08-09T08:14:18.313Z,73.16
2022-08-09T08:17:00.381Z,71.78
2022-08-09T08:19:34.136Z,70.48
2022-08-09T08:22:01.582Z,69.99
2022-08-09T08:24:34.318Z,70.93
2022-08-09T08:27:07.165Z,70.45
2022-08-09T08:29:48.762Z,70.17
2022-08-09T08:32:24.148Z,69.28
2022-08-09T08:34:58.727Z,68.77
2022-08-09T08:37:26.195Z,69.11
2022-08-09T08:40:09.287Z,69.05
2022-08-09T08:42:38.093Z,69.05
2022-08-09T08:45:11.853Z,70.75
2022-08-09T08:47:42.679Z,70.58
2022-08-09T08:50:15.619Z,68.25
2022-08-09T08:52:58.183Z,68.42
2022-08-09T08:55:26.556Z,69.31
2022-08-09T08:57:56.950Z,70.35
2022-08-09T09:00:27.908Z,70.33
2022-08-09T09:03:08.295Z,69.17
2022-08-09T09:05:58.743Z,68.75
2022-08-09T09:08:29.933Z,67.16
2022-08-09T09:11:01.708Z,65.89
2022-08-09T09:13:34.792Z,65.23
2022-08-09T09:16:16.032Z,66.24
2022-08-09T09:18:48.069Z,65.33
2022-08-09T09:21:26.138Z,66.64
2022-08-09T09:23:58.074Z,66.95
2022-08-09T09:26:26.102Z,67.52
2022-08-09T09:29:03.979Z,65.47
2022-08-09T09:32:06.385Z,63.16
2022-08-09T09:34:23.930Z,61.14
2022-08-09T09:36:53.940Z,61.42
2022-08-09T09:39:50.490Z,61.84
2022-08-09T09:42:29.413Z,61.74
2022-08-09T09:45:03.261Z,60.93
2022-08-09T09:47:30.277Z,60.12
2022-08-09T09:50:15.365Z,60.61
2022-08-09T09:52:56.187Z,62.38
2022-08-09T09:55:31.377Z,62.47
2022-08-09T09:58:15.728Z,62.44
2022-08-09T10:00:54.045Z,62.33
2022-08-09T10:04:00.145Z,63.53
2022-08-09T10:06:32.523Z,63.87
2022-08-09T10:09:11.772Z,64.47
2022-08-09T10:12:00.242Z,64.56
2022-08-09T10:14:34.897Z,65.13
2022-08-09T10:17:38.948Z,63.30
2022-08-09T10:19:59.958Z,62.28
2022-08-09T10:22:35.009Z,61.59
2022-08-09T10:25:12.392Z,61.24
2022-08-09T10:27:58.068Z,60.14
2022-08-09T10:33:29.647Z,60.72
2022-08-09T10:36:09.398Z,61.34
2022-08-09T10:38:55.822Z,62.98
2022-08-09T10:41:25.669Z,59.79
2022-08-09T10:44:01.126Z,59.15
2022-08-09T10:46:57.744Z,57.54
2022-08-09T10:49:50.424Z,55.80
2022-08-09T10:52:42.806Z,54.92
2022-08-09T10:55:24.269Z,55.83
2022-08-09T10:57:52.044Z,56.26
2022-08-09T11:00:31.036Z,55.30
2022-08-09T11:03:16.004Z,54.52
2022-08-09T11:06:18.472Z,55.59
2022-08-09T11:08:47.962Z,54.71
2022-08-09T11:11:18.851Z,55.03
2022-08-09T11:13:54.567Z,56.66
2022-08-09T11:16:36.022Z,57.05
2022-08-09T11:19:09.616Z,55.16
2022-08-09T11:22:10.708Z,55.89
2022-08-09T11:25:08.788Z,55.25
2022-08-09T11:28:04.173Z,55.99
2022-08-09T11:30:32.621Z,55.56
2022-08-09T11:33:05.652Z,52.83
2022-08-09T11:35:49.866Z,55.08
2022-08-09T11:38:19.352Z,55.37
2022-08-09T11:40:49.085Z,55.93
2022-08-09T11:43:25.543Z,55.48
2022-08-09T11:45:59.399Z,58.35
2022-08-09T11:48:30.092Z,57.31
2022-08-09T11:52:56.991Z,55.25
2022-08-09T11:54:01.041Z,56.79
2022-08-09T11:56:41.977Z,56.49
2022-08-09T11:59:11.569Z,57.98
2022-08-09T12:02:18.262Z,55.78
2022-08-09T12:04:37.591Z,54.89
2022-08-09T12:07:08.262Z,55.73
2022-08-09T12:09:35.971Z,52.70
2022-08-09T12:12:12.290Z,54.31
2022-08-09T12:15:07.324Z,53.25
2022-08-09T12:17:34.644Z,49.78
2022-08-09T12:20:41.927Z,51.70
2022-08-09T12:23:08.386Z,51.31
2022-08-09T12:25:38.404Z,51.27
2022-08-09T12:28:58.863Z,49.86
2022-08-09T12:31:57.923Z,50.63
2022-08-09T12:34:13.716Z,50.37
2022-08-09T12:36:58.959Z,50.26
2022-08-09T12:39:41.035Z,49.36
2022-08-09T12:42:09.067Z,48.35
2022-08-09T12:44:37.977Z,48.36
2022-08-09T12:47:09.339Z,50.19
2022-08-09T12:49:39.506Z,47.56
2022-08-09T12:52:17.773Z,48.45
2022-08-09T12:56:11.524Z,49.03
2022-08-09T12:57:46.818Z,47.44
2022-08-09T13:00:18.415Z,47.05
2022-08-09T13:02:57.082Z,47.94
2022-08-09T13:05:26.150Z,45.51
2022-08-09T13:08:21.307Z,46.24
2022-08-09T13:11:13.083Z,46.60
2022-08-09T13:14:40.698Z,46.98
2022-08-09T13:17:04.455Z,47.09
2022-08-09T13:20:10.070Z,46.14
2022-08-09T13:23:01.495Z,47.20
2022-08-09T13:25:14.051Z,47.24
2022-08-09T13:27:55.416Z,46.29
2022-08-09T13:30:50.401Z,46.86
2022-08-09T13:33:23.987Z,47.26
2022-08-09T13:36:24.162Z,47.42
2022-08-09T13:38:56.608Z,47.50
2022-08-09T13:41:55.515Z,47.84
2022-08-09T13:44:16.459Z,46.52
2022-08-09T13:47:27.027Z,45.17
2022-08-09T13:49:37.618Z,44.33
2022-08-09T13:52:09.302Z,45.53
2022-08-09T13:54:36.335Z,44.81
2022-08-09T13:57:09.773Z,44.10
2022-08-09T13:59:58.065Z,44.81
2022-08-09T14:02:26.056Z,44.52
2022-08-09T14:04:59.734Z,43.52
2022-08-09T14:07:30.344Z,45.74
2022-08-09T14:10:09.470Z,44.74
2022-08-09T14:12:44.144Z,43.33
2022-08-09T14:15:19.558Z,44.85
2022-08-09T14:18:18.924Z,45.35
2022-08-09T14:20:43.773Z,45.28
2022-08-09T14:23:11.220Z,45.44
2022-08-09T14:25:51.219Z,46.46
2022-08-09T14:28:18.159Z,45.02
2022-08-09T14:30:47.381Z,44.44
2022-08-09T14:33:13.744Z,43.67
2022-08-09T14:35:52.690Z,42.97
2022-08-09T14:38:19.732Z,43.37
2022-08-09T14:41:01.374Z,44.07
2022-08-09T14:43:47.439Z,45.33
2022-08-09T14:46:59.035Z,44.71
2022-08-09T14:49:02.412Z,43.43
2022-08-09T14:51:30.268Z,44.63
2022-08-09T14:54:09.348Z,44.23
2022-08-09T14:56:36.158Z,44.24
2022-08-09T14:59:22.570Z,42.57
2022-08-09T15:01:50.285Z,43.67
2022-08-09T15:04:16.714Z,46.96
2022-08-09T15:06:43.205Z,46.87
2022-08-09T15:09:16.673Z,45.44
2022-08-09T15:12:04.113Z,47.29
2022-08-09T15:14:33.887Z,47.08
2022-08-09T15:17:00.585Z,46.25
2022-08-09T15:19:35.924Z,46.47
2022-08-09T15:22:03.287Z,47.41
2022-08-09T15:24:29.947Z,47.24
2022-08-09T15:26:56.666Z,48.14
2022-08-09T15:30:48.885Z,49.98
2022-08-09T15:32:29.377Z,50.06
2022-08-09T15:35:00.752Z,50.03
2022-08-09T15:37:37.287Z,50.67
2022-08-09T15:40:22.711Z,51.23
2022-08-09T15:42:52.581Z,51.74
2022-08-09T15:45:21.636Z,51.86
2022-08-09T15:48:06.560Z,53.09
2022-08-09T15:50:44.044Z,53.30
2022-08-09T15:53:18.825Z,53.01
2022-08-09T15:56:21.472Z,54.26
2022-08-09T15:58:44.625Z,53.56
2022-08-09T16:01:13.284Z,54.69
2022-08-09T16:03:41.782Z,54.21
2022-08-09T16:06:29.446Z,54.96
2022-08-09T16:09:00.818Z,54.96
2022-08-09T16:11:29.944Z,54.98
2022-08-09T16:14:02.732Z,55.27
2022-08-09T16:16:34.619Z,56.93
2022-08-09T16:19:04.407Z,57.68
2022-08-09T16:21:31.687Z,57.54
2022-08-09T16:24:02.399Z,58.03
2022-08-09T16:26:35.406Z,58.71
2022-08-09T16:29:12.732Z,59.59
2022-08-09T16:32:19.577Z,59.62
2022-08-09T16:34:55.112Z,60.72
2022-08-09T16:37:53.735Z,60.17
2022-08-09T16:40:10.405Z,59.82
2022-08-09T16:42:37.815Z,59.53
2022-08-09T16:45:06.286Z,59.49
2022-08-09T16:48:39.385Z,59.86
2022-08-09T16:50:32.497Z,59.40
2022-08-09T16:53:00.944Z,60.17
2022-08-09T16:55:31.556Z,59.79
2022-08-09T16:58:16.458Z,59.30
2022-08-09T17:00:43.507Z,58.82
2022-08-09T17:03:21.142Z,60.09
2022-08-09T17:06:07.197Z,59.66
2022-08-09T17:09:03.225Z,60.09
2022-08-09T17:11:39.967Z,59.67
2022-08-09T17:14:16.235Z,59.83
2022-08-09T17:16:53.493Z,59.02
2022-08-09T17:19:20.932Z,58.91
2022-08-09T17:21:47.534Z,59.25
2022-08-09T17:24:27.806Z,59.50
2022-08-09T17:26:56.942Z,60.01
2022-08-09T17:29:24.948Z,60.88
2022-08-09T17:32:00.137Z,60.74
2022-08-09T17:35:10.449Z,60.63
2022-08-09T17:37:19.167Z,61.22
2022-08-09T17:39:52.248Z,61.77
2022-08-09T17:42:55.362Z,61.55
2022-08-09T17:45:15.844Z,62.13
2022-08-09T17:47:54.922Z,62.89
2022-08-09T17:54:13.098Z,63.08
2022-08-09T17:56:42.152Z,63.74
2022-08-09T17:59:16.792Z,63.81
2022-08-09T18:02:11.018Z,63.77
2022-08-09T18:04:30.613Z,63.00
2022-08-09T18:06:57.287Z,63.74
2022-08-09T18:09:40.971Z,63.76
2022-08-09T18:12:19.751Z,63.41
2022-08-09T18:14:54.387Z,63.37
2022-08-09T18:21:22.879Z,64.01
2022-08-09T18:24:09.920Z,63.60
2022-08-09T18:26:38.262Z,64.25
2022-08-09T18:30:35.097Z,63.72
2022-08-09T18:32:00.268Z,64.23
2022-08-09T18:34:29.636Z,64.73
2022-08-09T18:36:56.122Z,64.31
2022-08-09T18:39:25.073Z,64.72
2022-08-09T18:41:53.888Z,64.38
2022-08-09T18:44:26.855Z,64.71
2022-08-09T18:47:04.851Z,65.45
2022-08-09T18:49:41.455Z,66.31
2022-08-09T18:52:11.684Z,66.92
2022-08-09T18:54:38.858Z,67.18
2022-08-09T18:57:06.792Z,67.97
2022-08-09T18:59:37.563Z,68.23
2022-08-09T19:02:16.012Z,68.25
2022-08-09T19:04:47.630Z,68.29
2022-08-09T19:07:28.972Z,67.85
2022-08-09T19:10:14.151Z,67.97
2022-08-09T19:12:50.028Z,68.50
2022-08-09T19:15:17.820Z,69.04
2022-08-09T19:17:54.520Z,68.76
2022-08-09T19:20:23.303Z,69.38
2022-08-09T19:22:54.699Z,70.31
2022-08-09T19:25:42.757Z,70.56
2022-08-09T19:28:09.099Z,71.62
2022-08-09T19:30:44.415Z,71.60
2022-08-09T19:33:19.411Z,72.04
2022-08-09T19:35:57.544Z,72.05
2022-08-09T19:38:26.990Z,72.79
2022-08-09T19:40:54.049Z,73.00
2022-08-09T19:44:00.830Z,72.07
2022-08-09T19:46:08.443Z,71.71
2022-08-09T19:49:02.655Z,72.68
2022-08-09T19:51:27.920Z,73.55
2022-08-09T19:53:58.436Z,74.85
2022-08-09T19:56:28.591Z,75.93
2022-08-09T19:59:18.197Z,76.14
2022-08-09T20:01:52.506Z,75.99
2022-08-09T20:04:35.873Z,75.48
2022-08-09T20:07:06.084Z,75.14
2022-08-09T20:09:44.434Z,74.17
2022-08-09T20:12:31.800Z,74.51
2022-08-09T20:15:01.470Z,75.29
2022-08-09T20:17:48.178Z,75.31
2022-08-09T20:20:15.293Z,75.30
2022-08-09T20:22:46.486Z,74.90
2022-08-09T20:25:13.116Z,76.25
2022-08-09T20:27:49.109Z,77.01
2022-08-09T20:30:18.034Z,77.84
2022-08-09T20:32:52.315Z,78.08
2022-08-09T20:35:21.029Z,77.80
2022-08-09T20:38:22.450Z,77.72
2022-08-09T20:40:35.592Z,77.52
2022-08-09T20:43:18.731Z,76.88
2022-08-09T20:46:00.357Z,75.96
2022-08-09T20:48:30.973Z,75.56
2022-08-09T20:50:58.276Z,76.44
2022-08-09T20:53:36.280Z,77.13
2022-08-09T20:56:20.001Z,78.42
2022-08-09T20:58:54.684Z,78.88
2022-08-09T21:01:35.484Z,79.97
2022-08-09T21:05:51.131Z,80.03
2022-08-09T21:06:59.655Z,80.02
2022-08-09T21:09:41.851Z,80.13
2022-08-09T21:14:41.867Z,81.66
2022-08-09T21:18:20.930Z,81.62
2022-08-09T21:20:19.174Z,80.77
2022-08-09T21:22:46.664Z,81.86
2022-08-09T21:25:37.740Z,82.07
2022-08-09T21:28:07.297Z,82.72
2022-08-09T21:30:40.376Z,83.23
2022-08-09T21:33:08.106Z,83.95
2022-08-09T21:35:40.904Z,84.21
2022-08-09T21:38:21.021Z,84.57
2022-08-09T21:40:57.968Z,84.71
2022-08-09T21:43:57.100Z,84.73
2022-08-09T21:46:11.953Z,85.92
2022-08-09T21:48:42.763Z,87.47
2022-08-09T21:51:24.536Z,87.63
2022-08-09T21:54:02.493Z,88.30
2022-08-09T21:56:43.073Z,88.16
2022-08-09T21:59:16.284Z,87.26
2022-08-09T22:01:59.168Z,87.04
2022-08-09T22:04:55.540Z,87.19
2022-08-09T22:07:13.575Z,86.77
2022-08-09T22:09:50.522Z,87.86
2022-08-09T22:12:24.594Z,88.27
2022-08-09T22:14:58.055Z,88.48
2022-08-09T22:17:24.643Z,88.60
2022-08-09T22:19:58.940Z,88.68
2022-08-09T22:22:28.173Z,89.84
2022-08-09T22:26:06.786Z,89.08
2022-08-09T22:27:41.275Z,88.67
2022-08-09T22:30:09.692Z,89.82
2022-08-09T22:32:37.072Z,89.34
2022-08-09T22:35:06.769Z,89.87
2022-08-09T22:38:07.262Z,89.96
2022-08-09T22:40:34.663Z,89.50
2022-08-09T22:43:01.134Z,89.38
2022-08-09T22:48:15.375Z,89.44
2022-08-09T22:48:34.978Z,89.90
2022-08-09T22:51:02.814Z,90.00
2022-08-09T22:53:58.616Z,89.99
2022-08-09T22:56:31.133Z,89.95
2022-08-09T22:59:06.037Z,89.55
2022-08-09T23:01:51.771Z,89.68
2022-08-09T23:04:18.357Z,90.56
2022-08-09T23:07:03.577Z,91.32
2022-08-09T23:09:38.272Z,91.84
2022-08-09T23:12:05.185Z,92.12
2022-08-09T23:14:41.401Z,92.71
2022-08-09T23:17:10.029Z,93.55
2022-08-09T23:20:00.643Z,94.22
2022-08-09T23:22:22.901Z,94.28
2022-08-09T23:24:49.299Z,94.18
2022-08-09T23:27:18.908Z,93.95
2022-08-09T23:29:45.527Z,94.65
2022-08-09T23:32:12.193Z,94.85
2022-08-09T23:34:38.614Z,94.37
2022-08-09T23:37:05.864Z,94.43
2022-08-09T23:39:32.458Z,94.11
2022-08-09T23:41:59.131Z,94.24
2022-08-09T23:44:25.592Z,94.15
2022-08-09T23:46:57.364Z,94.23
2022-08-09T23:49:24.509Z,94.59
2022-08-09T23:51:52.062Z,94.95
2022-08-09T23:54:19.673Z,95.21
2022-08-09T23:56:54.043Z,95.86
2022-08-09T23:59:23.022Z,96.32
